sensor_id;sensor_type;location;lat;lon;timestamp;P1;durP1;ratioP1;P2;durP2;ratioP2
10902;SDS011;5504;47.312;11.060;2022-12-07T00:02:05;17.10;;;11.57;;
10902;SDS011;5504;47.312;11.060;2022-12-07T00:04:31;16.03;;;11.50;;
10902;SDS011;5504;47.312;11.060;2022-12-07T00:06:56;17.57;;;11.57;;
10902;SDS011;5504;47.312;11.060;2022-12-07T00:09:22;14.87;;;11.07;;
10902;SDS011;5504;47.312;11.060;2022-12-07T00:11:49;16.93;;;12.10;;
10902;SDS011;5504;47.312;11.060;2022-12-07T00:14:16;16.87;;;12.50;;
10902;SDS011;5504;47.312;11.060;2022-12-07T00:16:43;17.57;;;13.33;;
10902;SDS011;5504;47.312;11.060;2022-12-07T00:19:10;16.10;;;11.80;;
10902;SDS011;5504;47.312;11.060;2022-12-07T00:21:37;15.43;;;11.50;;
10902;SDS011;5504;47.312;11.060;2022-12-07T00:24:03;15.83;;;11.23;;
10902;SDS011;5504;47.312;11.060;2022-12-07T00:26:31;15.90;;;11.30;;
10902;SDS011;5504;47.312;11.060;2022-12-07T00:29:06;17.50;;;10.90;;
10902;SDS011;5504;47.312;11.060;2022-12-07T00:31:35;14.10;;;11.03;;
10902;SDS011;5504;47.312;11.060;2022-12-07T00:34:04;14.13;;;11.00;;
10902;SDS011;5504;47.312;11.060;2022-12-07T00:36:31;15.83;;;11.37;;
10902;SDS011;5504;47.312;11.060;2022-12-07T00:38:57;16.43;;;11.20;;
10902;SDS011;5504;47.312;11.060;2022-12-07T00:41:24;15.43;;;11.50;;
10902;SDS011;5504;47.312;11.060;2022-12-07T00:43:51;14.77;;;10.67;;
10902;SDS011;5504;47.312;11.060;2022-12-07T00:46:18;16.07;;;10.97;;
10902;SDS011;5504;47.312;11.060;2022-12-07T00:48:45;15.77;;;11.37;;
10902;SDS011;5504;47.312;11.060;2022-12-07T00:51:12;16.10;;;10.70;;
10902;SDS011;5504;47.312;11.060;2022-12-07T00:53:39;14.10;;;10.70;;
10902;SDS011;5504;47.312;11.060;2022-12-07T00:56:09;13.93;;;11.30;;
10902;SDS011;5504;47.312;11.060;2022-12-07T00:58:39;15.33;;;10.80;;
10902;SDS011;5504;47.312;11.060;2022-12-07T01:01:05;15.70;;;10.93;;
10902;SDS011;5504;47.312;11.060;2022-12-07T01:03:32;14.60;;;10.87;;
10902;SDS011;5504;47.312;11.060;2022-12-07T01:05:58;14.93;;;11.10;;
10902;SDS011;5504;47.312;11.060;2022-12-07T01:08:24;16.93;;;11.47;;
10902;SDS011;5504;47.312;11.060;2022-12-07T01:11:01;16.23;;;11.40;;
10902;SDS011;5504;47.312;11.060;2022-12-07T01:13:29;14.60;;;10.23;;
10902;SDS011;5504;47.312;11.060;2022-12-07T01:15:56;17.00;;;10.80;;
10902;SDS011;5504;47.312;11.060;2022-12-07T01:18:25;14.07;;;10.33;;
10902;SDS011;5504;47.312;11.060;2022-12-07T01:20:58;14.40;;;10.90;;
10902;SDS011;5504;47.312;11.060;2022-12-07T01:23:35;16.07;;;10.80;;
10902;SDS011;5504;47.312;11.060;2022-12-07T01:26:03;16.97;;;11.60;;
10902;SDS011;5504;47.312;11.060;2022-12-07T01:28:31;14.07;;;10.33;;
10902;SDS011;5504;47.312;11.060;2022-12-07T01:33:23;13.27;;;10.17;;
10902;SDS011;5504;47.312;11.060;2022-12-07T01:35:49;15.33;;;10.93;;
10902;SDS011;5504;47.312;11.060;2022-12-07T01:38:15;14.03;;;10.50;;
10902;SDS011;5504;47.312;11.060;2022-12-07T01:40:40;16.13;;;10.93;;
10902;SDS011;5504;47.312;11.060;2022-12-07T01:43:14;13.63;;;10.23;;
10902;SDS011;5504;47.312;11.060;2022-12-07T01:45:43;14.10;;;9.30;;
10902;SDS011;5504;47.312;11.060;2022-12-07T01:48:09;13.53;;;9.27;;
10902;SDS011;5504;47.312;11.060;2022-12-07T01:50:37;15.97;;;9.93;;
10902;SDS011;5504;47.312;11.060;2022-12-07T01:53:04;13.80;;;9.67;;
10902;SDS011;5504;47.312;11.060;2022-12-07T01:55:34;13.77;;;9.53;;
10902;SDS011;5504;47.312;11.060;2022-12-07T01:58:03;13.00;;;9.73;;
10902;SDS011;5504;47.312;11.060;2022-12-07T02:00:29;13.30;;;9.57;;
10902;SDS011;5504;47.312;11.060;2022-12-07T02:02:55;13.43;;;9.60;;
10902;SDS011;5504;47.312;11.060;2022-12-07T02:05:27;14.33;;;9.73;;
10902;SDS011;5504;47.312;11.060;2022-12-07T02:07:55;10.93;;;8.63;;
10902;SDS011;5504;47.312;11.060;2022-12-07T02:10:26;12.67;;;9.43;;
10902;SDS011;5504;47.312;11.060;2022-12-07T02:13:04;13.63;;;9.23;;
10902;SDS011;5504;47.312;11.060;2022-12-07T02:15:37;12.07;;;9.67;;
10902;SDS011;5504;47.312;11.060;2022-12-07T02:18:27;16.30;;;9.13;;
10902;SDS011;5504;47.312;11.060;2022-12-07T02:29:23;13.70;;;8.90;;
10902;SDS011;5504;47.312;11.060;2022-12-07T02:32:06;10.93;;;8.73;;
10902;SDS011;5504;47.312;11.060;2022-12-07T02:34:59;13.53;;;8.50;;
10902;SDS011;5504;47.312;11.060;2022-12-07T02:40:36;11.67;;;8.63;;
10902;SDS011;5504;47.312;11.060;2022-12-07T02:43:26;12.47;;;8.83;;
10902;SDS011;5504;47.312;11.060;2022-12-07T02:46:17;12.57;;;9.37;;
10902;SDS011;5504;47.312;11.060;2022-12-07T02:48:51;11.37;;;8.60;;
10902;SDS011;5504;47.312;11.060;2022-12-07T02:51:18;14.20;;;9.67;;
10902;SDS011;5504;47.312;11.060;2022-12-07T02:53:44;13.27;;;8.60;;
10902;SDS011;5504;47.312;11.060;2022-12-07T02:56:13;12.90;;;9.30;;
10902;SDS011;5504;47.312;11.060;2022-12-07T03:12:24;11.87;;;8.53;;
10902;SDS011;5504;47.312;11.060;2022-12-07T03:15:00;11.83;;;8.80;;
10902;SDS011;5504;47.312;11.060;2022-12-07T03:17:38;12.17;;;9.00;;
10902;SDS011;5504;47.312;11.060;2022-12-07T03:20:07;13.30;;;9.47;;
10902;SDS011;5504;47.312;11.060;2022-12-07T03:22:37;12.63;;;9.13;;
10902;SDS011;5504;47.312;11.060;2022-12-07T03:25:07;11.83;;;9.40;;
10902;SDS011;5504;47.312;11.060;2022-12-07T03:27:40;12.37;;;9.80;;
10902;SDS011;5504;47.312;11.060;2022-12-07T03:30:13;13.27;;;9.53;;
10902;SDS011;5504;47.312;11.060;2022-12-07T03:37:51;11.47;;;8.60;;
10902;SDS011;5504;47.312;11.060;2022-12-07T03:40:35;12.10;;;8.93;;
10902;SDS011;5504;47.312;11.060;2022-12-07T03:43:10;11.30;;;8.70;;
10902;SDS011;5504;47.312;11.060;2022-12-07T03:50:40;11.57;;;8.80;;
10902;SDS011;5504;47.312;11.060;2022-12-07T03:53:24;12.90;;;9.60;;
10902;SDS011;5504;47.312;11.060;2022-12-07T03:56:04;14.00;;;9.40;;
10902;SDS011;5504;47.312;11.060;2022-12-07T03:58:32;12.13;;;8.80;;
10902;SDS011;5504;47.312;11.060;2022-12-07T04:01:00;11.57;;;9.10;;
10902;SDS011;5504;47.312;11.060;2022-12-07T04:03:26;12.57;;;9.50;;
10902;SDS011;5504;47.312;11.060;2022-12-07T04:05:52;11.17;;;8.87;;
10902;SDS011;5504;47.312;11.060;2022-12-07T04:08:18;11.53;;;8.43;;
10902;SDS011;5504;47.312;11.060;2022-12-07T04:10:44;10.73;;;8.10;;
10902;SDS011;5504;47.312;11.060;2022-12-07T04:13:09;11.63;;;8.60;;
10902;SDS011;5504;47.312;11.060;2022-12-07T04:15:35;10.50;;;8.43;;
10902;SDS011;5504;47.312;11.060;2022-12-07T04:18:01;9.87;;;8.37;;
10902;SDS011;5504;47.312;11.060;2022-12-07T04:20:26;9.83;;;8.13;;
10902;SDS011;5504;47.312;11.060;2022-12-07T04:22:52;11.27;;;8.50;;
10902;SDS011;5504;47.312;11.060;2022-12-07T04:25:18;11.10;;;8.63;;
10902;SDS011;5504;47.312;11.060;2022-12-07T04:27:43;12.07;;;9.03;;
10902;SDS011;5504;47.312;11.060;2022-12-07T04:30:09;11.37;;;8.30;;
10902;SDS011;5504;47.312;11.060;2022-12-07T04:32:35;10.63;;;7.73;;
10902;SDS011;5504;47.312;11.060;2022-12-07T04:35:02;11.17;;;8.67;;
10902;SDS011;5504;47.312;11.060;2022-12-07T04:37:28;10.60;;;8.23;;
10902;SDS011;5504;47.312;11.060;2022-12-07T04:39:54;11.50;;;8.40;;
10902;SDS011;5504;47.312;11.060;2022-12-07T04:42:20;11.30;;;8.17;;
10902;SDS011;5504;47.312;11.060;2022-12-07T04:44:45;11.83;;;8.53;;
10902;SDS011;5504;47.312;11.060;2022-12-07T04:47:11;11.07;;;8.50;;
10902;SDS011;5504;47.312;11.060;2022-12-07T04:49:37;11.67;;;9.00;;
10902;SDS011;5504;47.312;11.060;2022-12-07T04:52:02;13.13;;;9.60;;
10902;SDS011;5504;47.312;11.060;2022-12-07T04:54:28;11.67;;;9.67;;
10902;SDS011;5504;47.312;11.060;2022-12-07T04:56:54;12.90;;;10.10;;
10902;SDS011;5504;47.312;11.060;2022-12-07T04:59:20;13.60;;;9.77;;
10902;SDS011;5504;47.312;11.060;2022-12-07T05:01:45;13.87;;;9.87;;
10902;SDS011;5504;47.312;11.060;2022-12-07T05:04:11;13.20;;;9.83;;
10902;SDS011;5504;47.312;11.060;2022-12-07T05:06:37;12.83;;;9.43;;
10902;SDS011;5504;47.312;11.060;2022-12-07T05:09:03;12.10;;;9.40;;
10902;SDS011;5504;47.312;11.060;2022-12-07T05:11:29;12.77;;;9.77;;
10902;SDS011;5504;47.312;11.060;2022-12-07T05:14:05;14.27;;;10.57;;
10902;SDS011;5504;47.312;11.060;2022-12-07T05:16:33;13.57;;;9.93;;
10902;SDS011;5504;47.312;11.060;2022-12-07T05:18:59;13.63;;;9.87;;
10902;SDS011;5504;47.312;11.060;2022-12-07T05:21:25;13.30;;;9.73;;
10902;SDS011;5504;47.312;11.060;2022-12-07T05:23:51;13.37;;;9.60;;
10902;SDS011;5504;47.312;11.060;2022-12-07T05:26:18;12.43;;;9.47;;
10902;SDS011;5504;47.312;11.060;2022-12-07T05:28:43;12.20;;;8.90;;
10902;SDS011;5504;47.312;11.060;2022-12-07T05:31:09;9.80;;;7.33;;
10902;SDS011;5504;47.312;11.060;2022-12-07T05:33:35;9.20;;;7.57;;
10902;SDS011;5504;47.312;11.060;2022-12-07T05:36:00;9.20;;;7.73;;
10902;SDS011;5504;47.312;11.060;2022-12-07T05:38:32;9.97;;;8.23;;
10902;SDS011;5504;47.312;11.060;2022-12-07T05:41:01;10.93;;;7.93;;
10902;SDS011;5504;47.312;11.060;2022-12-07T05:43:28;11.60;;;8.57;;
10902;SDS011;5504;47.312;11.060;2022-12-07T05:45:55;15.90;;;9.70;;
10902;SDS011;5504;47.312;11.060;2022-12-07T05:48:21;12.43;;;10.10;;
10902;SDS011;5504;47.312;11.060;2022-12-07T05:50:47;14.67;;;9.83;;
10902;SDS011;5504;47.312;11.060;2022-12-07T05:53:13;12.70;;;9.47;;
10902;SDS011;5504;47.312;11.060;2022-12-07T05:55:39;10.33;;;8.50;;
10902;SDS011;5504;47.312;11.060;2022-12-07T05:58:05;12.97;;;10.00;;
10902;SDS011;5504;47.312;11.060;2022-12-07T06:00:49;12.80;;;9.80;;
10902;SDS011;5504;47.312;11.060;2022-12-07T06:03:15;12.43;;;10.30;;
10902;SDS011;5504;47.312;11.060;2022-12-07T06:05:40;15.77;;;12.53;;
10902;SDS011;5504;47.312;11.060;2022-12-07T06:08:06;16.80;;;13.37;;
10902;SDS011;5504;47.312;11.060;2022-12-07T06:10:32;18.90;;;14.03;;
10902;SDS011;5504;47.312;11.060;2022-12-07T06:12:58;19.40;;;13.33;;
10902;SDS011;5504;47.312;11.060;2022-12-07T06:15:23;18.67;;;13.53;;
10902;SDS011;5504;47.312;11.060;2022-12-07T06:17:49;18.10;;;13.43;;
10902;SDS011;5504;47.312;11.060;2022-12-07T06:20:15;20.00;;;14.23;;
10902;SDS011;5504;47.312;11.060;2022-12-07T06:22:40;17.43;;;12.40;;
10902;SDS011;5504;47.312;11.060;2022-12-07T06:25:06;16.73;;;12.00;;
10902;SDS011;5504;47.312;11.060;2022-12-07T06:27:32;15.57;;;12.07;;
10902;SDS011;5504;47.312;11.060;2022-12-07T06:29:58;16.63;;;12.07;;
10902;SDS011;5504;47.312;11.060;2022-12-07T06:32:24;14.53;;;10.87;;
10902;SDS011;5504;47.312;11.060;2022-12-07T06:34:50;17.00;;;11.40;;
10902;SDS011;5504;47.312;11.060;2022-12-07T06:37:16;15.53;;;11.40;;
10902;SDS011;5504;47.312;11.060;2022-12-07T06:39:41;18.37;;;12.33;;
10902;SDS011;5504;47.312;11.060;2022-12-07T06:42:08;18.93;;;13.77;;
10902;SDS011;5504;47.312;11.060;2022-12-07T06:44:33;18.60;;;13.17;;
10902;SDS011;5504;47.312;11.060;2022-12-07T06:46:59;17.53;;;12.47;;
10902;SDS011;5504;47.312;11.060;2022-12-07T06:49:24;17.50;;;11.83;;
10902;SDS011;5504;47.312;11.060;2022-12-07T06:51:50;18.97;;;11.87;;
10902;SDS011;5504;47.312;11.060;2022-12-07T06:54:16;16.03;;;11.70;;
10902;SDS011;5504;47.312;11.060;2022-12-07T06:56:42;14.27;;;11.77;;
10902;SDS011;5504;47.312;11.060;2022-12-07T06:59:08;16.20;;;12.30;;
10902;SDS011;5504;47.312;11.060;2022-12-07T07:01:34;19.27;;;13.87;;
10902;SDS011;5504;47.312;11.060;2022-12-07T07:04:00;18.37;;;12.90;;
10902;SDS011;5504;47.312;11.060;2022-12-07T07:06:26;16.60;;;11.97;;
10902;SDS011;5504;47.312;11.060;2022-12-07T07:08:51;14.60;;;11.57;;
10902;SDS011;5504;47.312;11.060;2022-12-07T07:11:17;14.83;;;11.33;;
10902;SDS011;5504;47.312;11.060;2022-12-07T07:13:44;15.77;;;12.27;;
10902;SDS011;5504;47.312;11.060;2022-12-07T07:16:10;15.27;;;11.27;;
10902;SDS011;5504;47.312;11.060;2022-12-07T07:18:35;17.23;;;12.43;;
10902;SDS011;5504;47.312;11.060;2022-12-07T07:21:02;15.83;;;11.87;;
10902;SDS011;5504;47.312;11.060;2022-12-07T07:23:28;16.23;;;10.77;;
10902;SDS011;5504;47.312;11.060;2022-12-07T07:25:53;14.90;;;11.23;;
10902;SDS011;5504;47.312;11.060;2022-12-07T07:28:19;16.03;;;11.70;;
10902;SDS011;5504;47.312;11.060;2022-12-07T07:30:45;15.73;;;11.87;;
10902;SDS011;5504;47.312;11.060;2022-12-07T07:33:11;14.93;;;11.20;;
10902;SDS011;5504;47.312;11.060;2022-12-07T07:35:38;15.33;;;10.47;;
10902;SDS011;5504;47.312;11.060;2022-12-07T07:38:04;16.40;;;11.60;;
10902;SDS011;5504;47.312;11.060;2022-12-07T07:40:30;14.97;;;11.27;;
10902;SDS011;5504;47.312;11.060;2022-12-07T07:42:56;16.20;;;11.83;;
10902;SDS011;5504;47.312;11.060;2022-12-07T07:45:23;16.17;;;11.50;;
10902;SDS011;5504;47.312;11.060;2022-12-07T07:47:50;16.17;;;11.60;;
10902;SDS011;5504;47.312;11.060;2022-12-07T07:50:16;15.87;;;11.07;;
10902;SDS011;5504;47.312;11.060;2022-12-07T07:52:42;17.17;;;11.10;;
10902;SDS011;5504;47.312;11.060;2022-12-07T07:55:08;13.37;;;10.83;;
10902;SDS011;5504;47.312;11.060;2022-12-07T07:57:38;17.90;;;12.27;;
10902;SDS011;5504;47.312;11.060;2022-12-07T08:00:05;16.27;;;11.70;;
10902;SDS011;5504;47.312;11.060;2022-12-07T08:02:33;16.17;;;11.80;;
10902;SDS011;5504;47.312;11.060;2022-12-07T08:04:59;14.97;;;11.10;;
10902;SDS011;5504;47.312;11.060;2022-12-07T08:07:25;16.13;;;12.10;;
10902;SDS011;5504;47.312;11.060;2022-12-07T08:09:52;14.03;;;11.20;;
10902;SDS011;5504;47.312;11.060;2022-12-07T08:12:17;17.87;;;12.20;;
10902;SDS011;5504;47.312;11.060;2022-12-07T08:14:43;16.13;;;12.60;;
10902;SDS011;5504;47.312;11.060;2022-12-07T08:17:09;19.13;;;13.37;;
10902;SDS011;5504;47.312;11.060;2022-12-07T08:19:34;15.13;;;11.70;;
10902;SDS011;5504;47.312;11.060;2022-12-07T08:22:00;15.43;;;11.63;;
10902;SDS011;5504;47.312;11.060;2022-12-07T08:24:26;13.80;;;10.93;;
10902;SDS011;5504;47.312;11.060;2022-12-07T08:26:52;14.07;;;10.23;;
10902;SDS011;5504;47.312;11.060;2022-12-07T08:29:18;14.23;;;11.20;;
10902;SDS011;5504;47.312;11.060;2022-12-07T08:31:43;14.60;;;11.87;;
10902;SDS011;5504;47.312;11.060;2022-12-07T08:34:10;14.87;;;11.77;;
10902;SDS011;5504;47.312;11.060;2022-12-07T08:36:36;15.77;;;11.60;;
10902;SDS011;5504;47.312;11.060;2022-12-07T08:39:02;16.10;;;12.17;;
10902;SDS011;5504;47.312;11.060;2022-12-07T08:41:28;14.30;;;11.10;;
10902;SDS011;5504;47.312;11.060;2022-12-07T08:43:53;13.50;;;11.17;;
10902;SDS011;5504;47.312;11.060;2022-12-07T08:46:21;13.70;;;10.67;;
10902;SDS011;5504;47.312;11.060;2022-12-07T08:48:57;12.87;;;10.23;;
10902;SDS011;5504;47.312;11.060;2022-12-07T08:51:29;13.60;;;10.83;;
10902;SDS011;5504;47.312;11.060;2022-12-07T08:53:55;14.63;;;10.97;;
10902;SDS011;5504;47.312;11.060;2022-12-07T08:56:23;14.90;;;11.20;;
10902;SDS011;5504;47.312;11.060;2022-12-07T08:58:49;15.97;;;11.13;;
10902;SDS011;5504;47.312;11.060;2022-12-07T09:01:15;13.53;;;10.70;;
10902;SDS011;5504;47.312;11.060;2022-12-07T09:03:41;17.43;;;11.27;;
10902;SDS011;5504;47.312;11.060;2022-12-07T09:06:07;15.20;;;11.27;;
10902;SDS011;5504;47.312;11.060;2022-12-07T09:08:38;14.47;;;11.67;;
10902;SDS011;5504;47.312;11.060;2022-12-07T09:11:07;17.20;;;12.60;;
10902;SDS011;5504;47.312;11.060;2022-12-07T09:13:32;18.77;;;12.57;;
10902;SDS011;5504;47.312;11.060;2022-12-07T09:15:58;16.07;;;12.23;;
10902;SDS011;5504;47.312;11.060;2022-12-07T09:18:24;15.13;;;12.00;;
10902;SDS011;5504;47.312;11.060;2022-12-07T09:20:50;14.57;;;11.87;;
10902;SDS011;5504;47.312;11.060;2022-12-07T09:23:16;15.57;;;12.33;;
10902;SDS011;5504;47.312;11.060;2022-12-07T09:25:41;15.90;;;12.87;;
10902;SDS011;5504;47.312;11.060;2022-12-07T09:28:07;16.87;;;12.17;;
10902;SDS011;5504;47.312;11.060;2022-12-07T09:30:33;15.03;;;12.00;;
10902;SDS011;5504;47.312;11.060;2022-12-07T09:32:59;16.00;;;12.50;;
10902;SDS011;5504;47.312;11.060;2022-12-07T09:35:26;15.70;;;13.03;;
10902;SDS011;5504;47.312;11.060;2022-12-07T09:37:52;16.10;;;13.20;;
10902;SDS011;5504;47.312;11.060;2022-12-07T09:40:19;19.07;;;13.27;;
10902;SDS011;5504;47.312;11.060;2022-12-07T09:42:51;17.47;;;13.57;;
10902;SDS011;5504;47.312;11.060;2022-12-07T09:45:21;19.13;;;15.03;;
10902;SDS011;5504;47.312;11.060;2022-12-07T09:47:52;18.97;;;14.80;;
10902;SDS011;5504;47.312;11.060;2022-12-07T09:50:19;16.57;;;13.37;;
10902;SDS011;5504;47.312;11.060;2022-12-07T09:52:47;18.47;;;13.80;;
10902;SDS011;5504;47.312;11.060;2022-12-07T09:55:15;17.87;;;13.33;;
10902;SDS011;5504;47.312;11.060;2022-12-07T09:57:45;21.30;;;14.40;;
10902;SDS011;5504;47.312;11.060;2022-12-07T10:00:12;18.13;;;12.53;;
10902;SDS011;5504;47.312;11.060;2022-12-07T10:02:41;17.93;;;13.97;;
10902;SDS011;5504;47.312;11.060;2022-12-07T10:05:14;16.17;;;12.93;;
10902;SDS011;5504;47.312;11.060;2022-12-07T10:07:45;16.10;;;13.20;;
10902;SDS011;5504;47.312;11.060;2022-12-07T10:10:15;17.40;;;13.30;;
10902;SDS011;5504;47.312;11.060;2022-12-07T10:20:43;17.67;;;13.67;;
10902;SDS011;5504;47.312;11.060;2022-12-07T10:23:14;16.73;;;13.57;;
10902;SDS011;5504;47.312;11.060;2022-12-07T10:25:42;18.37;;;13.67;;
10902;SDS011;5504;47.312;11.060;2022-12-07T10:30:45;15.90;;;13.03;;
10902;SDS011;5504;47.312;11.060;2022-12-07T10:33:29;17.80;;;13.43;;
10902;SDS011;5504;47.312;11.060;2022-12-07T10:35:57;16.70;;;13.47;;
10902;SDS011;5504;47.312;11.060;2022-12-07T10:38:24;19.17;;;15.23;;
10902;SDS011;5504;47.312;11.060;2022-12-07T10:41:05;18.47;;;13.43;;
10902;SDS011;5504;47.312;11.060;2022-12-07T10:43:32;16.00;;;12.90;;
10902;SDS011;5504;47.312;11.060;2022-12-07T10:54:06;16.73;;;11.87;;
10902;SDS011;5504;47.312;11.060;2022-12-07T10:56:51;15.30;;;11.53;;
10902;SDS011;5504;47.312;11.060;2022-12-07T11:04:43;17.77;;;13.00;;
10902;SDS011;5504;47.312;11.060;2022-12-07T11:13:24;16.73;;;12.60;;
10902;SDS011;5504;47.312;11.060;2022-12-07T11:18:33;14.67;;;11.53;;
10902;SDS011;5504;47.312;11.060;2022-12-07T11:23:53;12.17;;;7.87;;
10902;SDS011;5504;47.312;11.060;2022-12-07T11:35:24;13.87;;;11.53;;
10902;SDS011;5504;47.312;11.060;2022-12-07T11:38:08;14.10;;;11.10;;
10902;SDS011;5504;47.312;11.060;2022-12-07T11:40:48;14.43;;;11.80;;
10902;SDS011;5504;47.312;11.060;2022-12-07T11:46:14;18.67;;;12.20;;
10902;SDS011;5504;47.312;11.060;2022-12-07T11:48:45;15.60;;;12.43;;
10902;SDS011;5504;47.312;11.060;2022-12-07T11:51:16;16.43;;;12.53;;
10902;SDS011;5504;47.312;11.060;2022-12-07T11:53:53;15.27;;;12.07;;
10902;SDS011;5504;47.312;11.060;2022-12-07T11:56:22;15.73;;;12.27;;
10902;SDS011;5504;47.312;11.060;2022-12-07T11:59:00;13.77;;;11.97;;
10902;SDS011;5504;47.312;11.060;2022-12-07T12:06:43;15.43;;;11.33;;
10902;SDS011;5504;47.312;11.060;2022-12-07T12:09:17;19.03;;;13.57;;
10902;SDS011;5504;47.312;11.060;2022-12-07T12:14:54;13.77;;;11.07;;
10902;SDS011;5504;47.312;11.060;2022-12-07T12:23:35;9.50;;;8.37;;
10902;SDS011;5504;47.312;11.060;2022-12-07T12:26:13;11.27;;;8.63;;
10902;SDS011;5504;47.312;11.060;2022-12-07T12:33:56;9.30;;;7.10;;
10902;SDS011;5504;47.312;11.060;2022-12-07T12:47:00;11.57;;;7.33;;
10902;SDS011;5504;47.312;11.060;2022-12-07T12:50:24;9.77;;;6.60;;
10902;SDS011;5504;47.312;11.060;2022-12-07T12:57:35;12.27;;;7.93;;
10902;SDS011;5504;47.312;11.060;2022-12-07T13:00:21;10.30;;;8.17;;
10902;SDS011;5504;47.312;11.060;2022-12-07T13:02:52;16.53;;;11.33;;
10902;SDS011;5504;47.312;11.060;2022-12-07T13:05:26;9.43;;;7.37;;
10902;SDS011;5504;47.312;11.060;2022-12-07T13:07:55;36.40;;;26.83;;
10902;SDS011;5504;47.312;11.060;2022-12-07T13:21:39;11.13;;;7.27;;
10902;SDS011;5504;47.312;11.060;2022-12-07T13:23:55;10.33;;;8.60;;
10902;SDS011;5504;47.312;11.060;2022-12-07T13:31:47;10.13;;;6.53;;
10902;SDS011;5504;47.312;11.060;2022-12-07T13:34:27;9.00;;;6.50;;
10902;SDS011;5504;47.312;11.060;2022-12-07T13:36:57;10.53;;;6.43;;
10902;SDS011;5504;47.312;11.060;2022-12-07T13:39:25;9.90;;;6.97;;
10902;SDS011;5504;47.312;11.060;2022-12-07T13:41:53;9.43;;;5.83;;
10902;SDS011;5504;47.312;11.060;2022-12-07T13:44:25;9.00;;;6.00;;
10902;SDS011;5504;47.312;11.060;2022-12-07T13:46:57;8.30;;;5.83;;
10902;SDS011;5504;47.312;11.060;2022-12-07T13:51:52;8.20;;;5.77;;
10902;SDS011;5504;47.312;11.060;2022-12-07T13:54:18;7.43;;;5.80;;
10902;SDS011;5504;47.312;11.060;2022-12-07T13:56:47;8.03;;;5.40;;
10902;SDS011;5504;47.312;11.060;2022-12-07T13:59:20;8.87;;;6.40;;
10902;SDS011;5504;47.312;11.060;2022-12-07T14:01:48;8.17;;;6.40;;
10902;SDS011;5504;47.312;11.060;2022-12-07T14:04:35;10.47;;;6.40;;
10902;SDS011;5504;47.312;11.060;2022-12-07T14:07:18;7.90;;;6.07;;
10902;SDS011;5504;47.312;11.060;2022-12-07T14:09:59;8.57;;;5.97;;
10902;SDS011;5504;47.312;11.060;2022-12-07T14:12:26;9.30;;;6.00;;
10902;SDS011;5504;47.312;11.060;2022-12-07T14:14:53;8.07;;;5.90;;
10902;SDS011;5504;47.312;11.060;2022-12-07T14:17:21;13.30;;;7.67;;
10902;SDS011;5504;47.312;11.060;2022-12-07T14:24:58;7.00;;;5.30;;
10902;SDS011;5504;47.312;11.060;2022-12-07T14:30:27;7.33;;;5.73;;
10902;SDS011;5504;47.312;11.060;2022-12-07T14:32:58;8.87;;;6.40;;
10902;SDS011;5504;47.312;11.060;2022-12-07T14:35:26;11.93;;;6.20;;
10902;SDS011;5504;47.312;11.060;2022-12-07T14:37:52;11.17;;;6.70;;
10902;SDS011;5504;47.312;11.060;2022-12-07T14:40:20;11.17;;;7.43;;
10902;SDS011;5504;47.312;11.060;2022-12-07T14:42:49;10.77;;;7.27;;
10902;SDS011;5504;47.312;11.060;2022-12-07T14:45:18;11.80;;;7.80;;
10902;SDS011;5504;47.312;11.060;2022-12-07T14:47:45;9.73;;;7.37;;
10902;SDS011;5504;47.312;11.060;2022-12-07T14:50:12;9.87;;;7.07;;
10902;SDS011;5504;47.312;11.060;2022-12-07T14:52:39;9.47;;;6.73;;
10902;SDS011;5504;47.312;11.060;2022-12-07T14:55:12;8.73;;;6.47;;
10902;SDS011;5504;47.312;11.060;2022-12-07T14:57:41;10.23;;;7.53;;
10902;SDS011;5504;47.312;11.060;2022-12-07T15:00:07;10.47;;;8.17;;
10902;SDS011;5504;47.312;11.060;2022-12-07T15:02:34;10.13;;;7.70;;
10902;SDS011;5504;47.312;11.060;2022-12-07T15:05:00;18.70;;;11.40;;
10902;SDS011;5504;47.312;11.060;2022-12-07T15:07:26;15.87;;;10.97;;
10902;SDS011;5504;47.312;11.060;2022-12-07T15:09:51;26.43;;;17.80;;
10902;SDS011;5504;47.312;11.060;2022-12-07T15:12:17;33.03;;;24.70;;
10902;SDS011;5504;47.312;11.060;2022-12-07T15:14:43;15.77;;;12.80;;
10902;SDS011;5504;47.312;11.060;2022-12-07T15:17:10;15.10;;;10.63;;
10902;SDS011;5504;47.312;11.060;2022-12-07T15:19:37;13.73;;;10.30;;
10902;SDS011;5504;47.312;11.060;2022-12-07T15:22:02;21.43;;;15.03;;
10902;SDS011;5504;47.312;11.060;2022-12-07T15:24:28;14.73;;;9.77;;
10902;SDS011;5504;47.312;11.060;2022-12-07T15:26:54;16.67;;;11.30;;
10902;SDS011;5504;47.312;11.060;2022-12-07T15:29:20;13.57;;;10.87;;
10902;SDS011;5504;47.312;11.060;2022-12-07T15:31:47;11.77;;;9.60;;
10902;SDS011;5504;47.312;11.060;2022-12-07T15:34:13;15.13;;;9.00;;
10902;SDS011;5504;47.312;11.060;2022-12-07T15:36:39;12.70;;;8.47;;
10902;SDS011;5504;47.312;11.060;2022-12-07T15:39:05;11.63;;;8.80;;
10902;SDS011;5504;47.312;11.060;2022-12-07T15:41:30;14.23;;;9.80;;
10902;SDS011;5504;47.312;11.060;2022-12-07T15:43:56;12.07;;;9.50;;
10902;SDS011;5504;47.312;11.060;2022-12-07T15:46:40;11.67;;;7.37;;
10902;SDS011;5504;47.312;11.060;2022-12-07T15:49:14;13.10;;;8.07;;
10902;SDS011;5504;47.312;11.060;2022-12-07T15:51:42;12.93;;;8.33;;
10902;SDS011;5504;47.312;11.060;2022-12-07T15:54:13;11.23;;;8.23;;
10902;SDS011;5504;47.312;11.060;2022-12-07T15:56:44;10.73;;;7.80;;
10902;SDS011;5504;47.312;11.060;2022-12-07T15:59:10;9.37;;;7.37;;
10902;SDS011;5504;47.312;11.060;2022-12-07T16:01:35;12.77;;;7.67;;
10902;SDS011;5504;47.312;11.060;2022-12-07T16:04:01;10.60;;;7.13;;
10902;SDS011;5504;47.312;11.060;2022-12-07T16:06:27;9.10;;;7.27;;
10902;SDS011;5504;47.312;11.060;2022-12-07T16:08:52;10.70;;;7.63;;
10902;SDS011;5504;47.312;11.060;2022-12-07T16:11:18;12.00;;;8.00;;
10902;SDS011;5504;47.312;11.060;2022-12-07T16:13:44;10.77;;;8.07;;
10902;SDS011;5504;47.312;11.060;2022-12-07T16:16:10;9.97;;;7.30;;
10902;SDS011;5504;47.312;11.060;2022-12-07T16:18:38;14.57;;;8.50;;
10902;SDS011;5504;47.312;11.060;2022-12-07T16:21:04;17.17;;;10.93;;
10902;SDS011;5504;47.312;11.060;2022-12-07T16:23:30;15.53;;;9.83;;
10902;SDS011;5504;47.312;11.060;2022-12-07T16:26:06;13.03;;;8.50;;
10902;SDS011;5504;47.312;11.060;2022-12-07T16:28:33;11.33;;;7.73;;
10902;SDS011;5504;47.312;11.060;2022-12-07T16:31:00;11.50;;;7.93;;
10902;SDS011;5504;47.312;11.060;2022-12-07T16:33:27;11.70;;;7.83;;
10902;SDS011;5504;47.312;11.060;2022-12-07T16:35:53;13.67;;;8.20;;
10902;SDS011;5504;47.312;11.060;2022-12-07T16:38:18;10.63;;;8.20;;
10902;SDS011;5504;47.312;11.060;2022-12-07T16:40:44;12.63;;;7.77;;
10902;SDS011;5504;47.312;11.060;2022-12-07T16:43:11;10.97;;;7.27;;
10902;SDS011;5504;47.312;11.060;2022-12-07T16:45:38;10.97;;;7.67;;
10902;SDS011;5504;47.312;11.060;2022-12-07T16:48:04;11.43;;;7.53;;
10902;SDS011;5504;47.312;11.060;2022-12-07T16:50:30;11.53;;;7.97;;
10902;SDS011;5504;47.312;11.060;2022-12-07T16:52:55;13.03;;;7.93;;
10902;SDS011;5504;47.312;11.060;2022-12-07T16:55:21;10.73;;;7.97;;
10902;SDS011;5504;47.312;11.060;2022-12-07T16:57:47;10.67;;;7.27;;
10902;SDS011;5504;47.312;11.060;2022-12-07T17:00:12;13.03;;;7.90;;
10902;SDS011;5504;47.312;11.060;2022-12-07T17:02:38;14.40;;;8.33;;
10902;SDS011;5504;47.312;11.060;2022-12-07T17:05:04;14.60;;;9.23;;